Time;durP1;ratioP1;P1;durP2;ratioP2;P2;SDS_P1;SDS_P2;PMS_P1;PMS_P2;Temp;Humidity;BMP_temperature;BMP_pressure;BME280_temperature;BME280_humidity;BME280_pressure;Samples;Min_cycle;Max_cycle;Signal;HPM_P1;HPM_P2
2022/07/27 00:00:40;;;;;;;13.18;3.13;;;19.50;99.90;;;;;;5081286;28;20488;-73
2022/07/27 00:03:06;;;;;;;5.22;3.17;;;19.50;99.90;;;;;;5077453;28;20029;-73
2022/07/27 00:05:32;;;;;;;6.35;2.78;;;19.50;99.90;;;;;;5079489;28;20031;-74
2022/07/27 00:07:58;;;;;;;4.43;2.08;;;19.50;99.90;;;;;;5086325;28;20073;-74
2022/07/27 00:10:24;;;;;;;6.65;2.70;;;19.40;99.90;;;;;;5075411;28;20112;-74
2022/07/27 00:12:49;;;;;;;7.03;2.40;;;19.40;99.90;;;;;;5075435;28;20024;-73
2022/07/27 00:15:16;;;;;;;8.00;3.10;;;19.50;99.90;;;;;;5076965;28;20032;-74
2022/07/27 00:17:42;;;;;;;5.78;2.95;;;19.50;99.90;;;;;;5075131;28;20043;-74
2022/07/27 00:20:08;;;;;;;3.97;2.58;;;19.50;99.90;;;;;;5081141;28;20404;-74
2022/07/27 00:22:34;;;;;;;6.35;2.83;;;19.60;99.90;;;;;;5077408;28;20072;-74
2022/07/27 00:25:00;;;;;;;6.35;2.88;;;19.60;99.90;;;;;;5084607;28;20053;-74
2022/07/27 00:27:26;;;;;;;7.25;2.78;;;19.70;99.90;;;;;;5075171;28;20031;-74
2022/07/27 00:29:52;;;;;;;9.43;2.63;;;19.70;99.90;;;;;;5078191;28;20032;-74
2022/07/27 00:32:17;;;;;;;7.60;2.97;;;19.80;99.90;;;;;;5075826;28;20027;-74
2022/07/27 00:34:43;;;;;;;5.97;2.38;;;19.70;99.90;;;;;;5075703;28;20447;-73
2022/07/27 00:37:09;;;;;;;3.80;2.53;;;19.80;99.90;;;;;;5077361;28;20056;-74
2022/07/27 00:39:35;;;;;;;7.45;2.67;;;19.80;99.90;;;;;;5083559;28;20028;-73
2022/07/27 00:42:00;;;;;;;6.95;2.55;;;19.80;99.90;;;;;;5085551;28;20050;-73
2022/07/27 00:44:28;;;;;;;6.88;3.03;;;19.70;99.90;;;;;;5081104;28;20021;-73
2022/07/27 00:46:54;;;;;;;7.25;2.95;;;19.70;99.90;;;;;;5085475;28;20032;-73
2022/07/27 00:49:21;;;;;;;4.68;2.30;;;19.60;99.90;;;;;;5076240;28;20195;-73
2022/07/27 00:51:48;;;;;;;8.20;2.60;;;19.60;99.90;;;;;;5079455;28;20049;-73
2022/07/27 00:54:15;;;;;;;6.38;2.90;;;19.50;99.90;;;;;;5076358;28;20059;-73
2022/07/27 00:56:41;;;;;;;5.72;2.67;;;19.50;99.90;;;;;;5075654;28;20020;-74
2022/07/27 00:59:09;;;;;;;12.95;3.28;;;19.40;99.90;;;;;;5074651;28;20396;-74
2022/07/27 01:01:35;;;;;;;5.68;2.42;;;19.40;99.90;;;;;;5074832;28;20012;-73
2022/07/27 01:04:01;;;;;;;7.70;2.63;;;19.30;99.90;;;;;;5075963;28;20034;-73
2022/07/27 01:06:27;;;;;;;9.88;3.08;;;19.30;99.90;;;;;;5075718;28;20514;-73
2022/07/27 01:09:55;;;;;;;7.28;2.70;;;19.20;99.90;;;;;;5080530;28;20403;-73
2022/07/27 01:11:40;;;;;;;11.02;3.83;;;19.20;99.90;;;;;;5074563;28;20124;-73
2022/07/27 01:14:07;;;;;;;5.65;2.80;;;19.20;99.90;;;;;;5076781;28;20060;-73
2022/07/27 01:16:32;;;;;;;5.68;2.53;;;19.10;99.90;;;;;;5075570;28;20024;-73
2022/07/27 01:18:58;;;;;;;9.70;2.70;;;19.10;99.90;;;;;;5076285;28;20023;-74
2022/07/27 01:21:24;;;;;;;8.85;3.30;;;19.00;99.90;;;;;;5074079;28;20024;-73
2022/07/27 01:23:50;;;;;;;7.22;2.90;;;19.00;99.90;;;;;;5074358;28;20032;-73
2022/07/27 01:26:16;;;;;;;6.95;3.20;;;18.90;99.90;;;;;;5078949;28;20046;-73
2022/07/27 01:28:43;;;;;;;5.95;2.95;;;18.90;99.90;;;;;;5087124;28;20387;-73
2022/07/27 01:31:09;;;;;;;9.13;3.42;;;18.80;99.90;;;;;;5079244;28;20048;-73
2022/07/27 01:33:34;;;;;;;6.25;2.58;;;18.80;99.90;;;;;;5096172;28;20073;-74
2022/07/27 01:36:00;;;;;;;8.55;3.45;;;18.70;99.90;;;;;;5079503;28;20023;-73
2022/07/27 01:38:26;;;;;;;8.20;2.72;;;18.70;99.90;;;;;;5083947;28;20037;-74
2022/07/27 01:40:53;;;;;;;12.35;2.78;;;18.70;99.90;;;;;;5079000;28;20024;-74
2022/07/27 01:43:20;;;;;;;6.63;2.92;;;18.60;99.90;;;;;;5078340;28;20119;-74
2022/07/27 01:45:46;;;;;;;7.65;2.70;;;18.60;99.90;;;;;;5078466;28;20055;-73
2022/07/27 01:48:12;;;;;;;5.93;2.65;;;18.50;99.90;;;;;;5079703;28;20024;-73
2022/07/27 01:50:38;;;;;;;7.93;3.10;;;18.50;99.90;;;;;;5078514;28;20085;-73
2022/07/27 01:53:04;;;;;;;5.88;2.80;;;18.40;99.90;;;;;;5079809;28;20044;-73
2022/07/27 01:55:30;;;;;;;4.90;1.98;;;18.40;99.90;;;;;;5081173;28;20493;-73
2022/07/27 01:57:55;;;;;;;5.10;2.30;;;18.30;99.90;;;;;;5079530;28;20496;-73
2022/07/27 02:00:21;;;;;;;4.20;2.33;;;18.20;99.90;;;;;;5078915;28;20370;-73
2022/07/27 02:02:47;;;;;;;3.88;2.42;;;18.20;99.90;;;;;;5083244;28;20035;-73
2022/07/27 02:05:13;;;;;;;11.07;2.65;;;18.10;99.90;;;;;;5079473;28;20035;-73
2022/07/27 02:07:40;;;;;;;4.32;2.05;;;18.10;99.90;;;;;;5080825;28;20047;-74
2022/07/27 02:10:08;;;;;;;7.78;2.38;;;18.00;99.90;;;;;;5079779;28;20099;-73
2022/07/27 02:12:36;;;;;;;3.75;1.90;;;17.90;99.90;;;;;;5080937;28;20066;-73
2022/07/27 02:15:12;;;;;;;8.65;2.63;;;17.90;99.90;;;;;;5077979;28;20044;-73
2022/07/27 02:17:39;;;;;;;6.10;2.00;;;17.80;99.90;;;;;;5077167;28;20111;-73
2022/07/27 02:20:06;;;;;;;7.53;2.15;;;17.80;99.90;;;;;;5078859;28;20115;-73
2022/07/27 02:22:32;;;;;;;4.97;1.88;;;17.80;99.90;;;;;;5082436;28;20396;-73
2022/07/27 02:24:58;;;;;;;6.60;2.40;;;17.80;99.90;;;;;;5084688;28;20031;-73
2022/07/27 02:27:24;;;;;;;6.50;1.98;;;17.70;99.90;;;;;;5091166;28;20028;-73
2022/07/27 02:29:52;;;;;;;5.50;2.38;;;17.70;99.90;;;;;;5076620;28;20495;-73
2022/07/27 02:32:18;;;;;;;4.30;1.92;;;17.70;99.90;;;;;;5079736;28;20430;-73
2022/07/27 02:34:44;;;;;;;4.60;1.98;;;17.70;99.90;;;;;;5079707;28;20033;-73
2022/07/27 02:37:10;;;;;;;2.95;1.77;;;17.70;99.90;;;;;;5078732;28;20506;-73
2022/07/27 02:39:36;;;;;;;5.93;1.70;;;17.70;99.90;;;;;;5080019;28;20028;-73
2022/07/27 02:42:02;;;;;;;8.57;2.40;;;17.70;99.90;;;;;;5076819;28;20597;-74
2022/07/27 02:44:28;;;;;;;5.28;1.85;;;17.60;99.90;;;;;;5079676;28;20488;-73
2022/07/27 02:46:55;;;;;;;4.03;1.80;;;17.60;99.90;;;;;;5079886;28;20107;-73
2022/07/27 02:49:20;;;;;;;5.70;2.15;;;17.60;99.90;;;;;;5079380;28;20029;-73
2022/07/27 02:51:51;;;;;;;3.42;2.40;;;17.60;99.90;;;;;;5076613;28;21655;-73
2022/07/27 02:54:18;;;;;;;5.50;2.00;;;17.60;99.90;;;;;;5077783;28;20025;-73
2022/07/27 02:56:44;;;;;;;4.05;1.92;;;17.60;99.90;;;;;;5078397;28;20112;-73
2022/07/27 02:59:10;;;;;;;4.88;1.98;;;17.50;99.90;;;;;;5080359;28;20061;-73
2022/07/27 03:01:36;;;;;;;3.53;1.85;;;17.50;99.90;;;;;;5083394;28;20078;-74
2022/07/27 03:04:03;;;;;;;7.53;2.22;;;17.50;99.90;;;;;;5078492;28;20020;-73
2022/07/27 03:06:28;;;;;;;5.80;2.25;;;17.40;99.90;;;;;;5078022;28;20032;-73
2022/07/27 03:08:54;;;;;;;5.03;2.30;;;17.40;99.90;;;;;;5076246;28;20032;-73
2022/07/27 03:11:20;;;;;;;6.00;2.10;;;17.40;99.90;;;;;;5080093;28;20016;-73
2022/07/27 03:13:46;;;;;;;7.05;2.10;;;17.30;99.90;;;;;;5079573;28;20495;-73
2022/07/27 03:16:12;;;;;;;4.90;2.10;;;17.30;99.90;;;;;;5078084;28;20544;-73
2022/07/27 03:18:38;;;;;;;6.30;1.85;;;17.30;99.90;;;;;;5095595;28;20057;-73
2022/07/27 03:21:05;;;;;;;4.25;2.20;;;17.30;99.90;;;;;;5094497;28;20027;-73
2022/07/27 03:23:30;;;;;;;4.07;2.20;;;17.30;99.90;;;;;;5088877;28;20032;-73
2022/07/27 03:25:56;;;;;;;10.07;2.25;;;17.30;99.90;;;;;;5091873;28;20020;-73
2022/07/27 03:28:22;;;;;;;5.88;1.90;;;17.20;99.90;;;;;;5086406;28;20535;-73
2022/07/27 03:30:48;;;;;;;2.97;2.00;;;17.20;99.90;;;;;;5087218;28;20019;-73
2022/07/27 03:33:14;;;;;;;7.38;2.22;;;17.20;99.90;;;;;;5084278;28;20021;-73
2022/07/27 03:35:40;;;;;;;3.88;2.22;;;17.10;99.90;;;;;;5086595;28;20023;-72
2022/07/27 03:38:05;;;;;;;4.95;1.95;;;17.10;99.90;;;;;;5081544;28;20077;-72
2022/07/27 03:40:32;;;;;;;2.60;1.95;;;17.10;99.90;;;;;;5079052;28;20099;-73
2022/07/27 03:42:59;;;;;;;7.75;2.10;;;17.10;99.90;;;;;;5081736;28;20028;-73
2022/07/27 03:45:25;;;;;;;7.72;2.15;;;17.10;99.90;;;;;;5078795;28;20556;-72
2022/07/27 03:47:51;;;;;;;5.38;1.98;;;17.00;99.90;;;;;;5080857;28;20501;-73
2022/07/27 03:50:17;;;;;;;4.90;1.70;;;17.00;99.90;;;;;;5078917;28;20056;-72
2022/07/27 03:52:43;;;;;;;3.85;2.50;;;17.00;99.90;;;;;;5081342;28;20036;-73
2022/07/27 03:55:09;;;;;;;10.98;2.10;;;17.10;99.90;;;;;;5078687;28;20024;-73
2022/07/27 03:57:35;;;;;;;7.80;2.05;;;17.00;99.90;;;;;;5090584;28;20015;-73
2022/07/27 04:00:01;;;;;;;6.75;1.80;;;17.00;99.90;;;;;;5087631;28;20035;-73
2022/07/27 04:02:26;;;;;;;4.45;1.85;;;17.00;99.90;;;;;;5081544;28;20093;-73
2022/07/27 04:04:52;;;;;;;11.27;2.47;;;17.00;99.90;;;;;;5078890;28;20008;-73
2022/07/27 04:07:18;;;;;;;3.58;1.73;;;17.00;99.90;;;;;;5088052;28;20103;-73
2022/07/27 04:09:44;;;;;;;5.15;2.35;;;17.00;99.90;;;;;;5083769;28;20061;-73
2022/07/27 04:12:10;;;;;;;4.28;1.70;;;17.00;99.90;;;;;;5081517;28;20092;-73
2022/07/27 04:14:35;;;;;;;4.78;1.60;;;17.10;99.90;;;;;;5078614;28;20024;-72
2022/07/27 04:17:01;;;;;;;5.53;2.47;;;17.10;99.90;;;;;;5077791;28;20069;-73
2022/07/27 04:19:27;;;;;;;5.95;2.15;;;17.10;99.90;;;;;;5086067;28;20031;-76
2022/07/27 04:21:53;;;;;;;7.82;2.50;;;17.10;99.90;;;;;;5091619;28;20020;-76
2022/07/27 04:24:19;;;;;;;3.10;1.77;;;17.00;99.90;;;;;;5092150;28;20095;-76
2022/07/27 04:26:45;;;;;;;4.75;2.03;;;17.00;99.90;;;;;;5092933;28;20020;-74
2022/07/27 04:29:10;;;;;;;4.53;1.98;;;17.00;99.90;;;;;;5094376;28;20032;-73
2022/07/27 04:31:36;;;;;;;5.47;2.20;;;16.90;99.90;;;;;;5081850;28;20048;-73
2022/07/27 04:34:02;;;;;;;3.95;1.90;;;16.90;99.90;;;;;;5095795;28;20051;-74
2022/07/27 04:36:28;;;;;;;3.63;2.15;;;16.90;99.90;;;;;;5086701;28;20017;-74
2022/07/27 04:38:54;;;;;;;3.05;1.98;;;16.90;99.90;;;;;;5086207;28;20028;-74
2022/07/27 04:41:19;;;;;;;9.77;2.20;;;16.80;99.90;;;;;;5088549;28;20034;-74
2022/07/27 04:43:45;;;;;;;16.60;4.00;;;16.80;99.90;;;;;;5095343;28;20024;-73
2022/07/27 04:46:12;;;;;;;7.25;1.75;;;16.80;99.90;;;;;;5082525;28;20488;-74
2022/07/27 04:48:38;;;;;;;6.78;1.98;;;16.80;99.90;;;;;;5080863;28;20028;-74
2022/07/27 04:51:04;;;;;;;2.53;2.03;;;16.80;99.90;;;;;;5081134;28;20035;-74
2022/07/27 04:53:29;;;;;;;4.45;2.00;;;16.80;99.90;;;;;;5080004;28;20035;-74
2022/07/27 04:55:55;;;;;;;5.43;1.95;;;16.80;99.90;;;;;;5085361;28;20070;-74
2022/07/27 04:58:21;;;;;;;4.70;2.20;;;16.80;99.90;;;;;;5092383;28;20024;-74
2022/07/27 05:00:47;;;;;;;3.70;2.30;;;16.90;99.90;;;;;;5096761;28;20071;-74
2022/07/27 05:03:13;;;;;;;5.82;2.25;;;16.80;99.90;;;;;;5099210;28;20023;-74
2022/07/27 05:05:39;;;;;;;6.68;2.75;;;16.90;99.90;;;;;;5091795;28;20052;-74
2022/07/27 05:08:05;;;;;;;6.65;2.30;;;16.80;99.90;;;;;;5092292;28;20069;-74
2022/07/27 05:10:31;;;;;;;7.78;2.83;;;16.80;99.90;;;;;;5097372;28;20094;-74
2022/07/27 05:12:56;;;;;;;6.10;2.65;;;16.90;99.90;;;;;;5100180;28;20054;-74
2022/07/27 05:15:23;;;;;;;7.25;2.10;;;16.90;99.90;;;;;;5095972;28;20023;-74
2022/07/27 05:17:50;;;;;;;2.80;2.15;;;16.90;99.90;;;;;;5092659;28;20028;-74
2022/07/27 05:20:17;;;;;;;6.18;2.67;;;16.90;99.90;;;;;;5095690;28;20028;-74
2022/07/27 05:22:43;;;;;;;3.47;2.10;;;16.90;99.90;;;;;;5092397;28;20385;-74
2022/07/27 05:25:09;;;;;;;6.80;2.03;;;17.00;99.90;;;;;;5088566;28;20077;-74
2022/07/27 05:27:36;;;;;;;7.43;2.50;;;17.00;99.90;;;;;;5096592;28;20028;-74
2022/07/27 05:30:06;;;;;;;4.65;2.42;;;17.00;99.90;;;;;;5087013;28;20021;-74
2022/07/27 05:32:32;;;;;;;3.40;2.35;;;17.00;99.90;;;;;;5085095;28;20020;-74
2022/07/27 05:34:58;;;;;;;5.30;1.92;;;17.00;99.90;;;;;;5084497;28;20025;-74
2022/07/27 05:37:24;;;;;;;4.95;2.53;;;17.00;99.90;;;;;;5081706;28;20020;-74
2022/07/27 05:39:49;;;;;;;8.80;2.22;;;16.90;99.90;;;;;;5080999;28;20070;-75
2022/07/27 05:42:15;;;;;;;3.80;2.03;;;17.00;99.90;;;;;;5096123;28;20486;-74
2022/07/27 05:44:41;;;;;;;4.65;2.25;;;17.00;99.90;;;;;;5097452;28;20034;-74
2022/07/27 05:47:07;;;;;;;6.43;2.40;;;17.10;99.90;;;;;;5099807;28;20032;-74
2022/07/27 05:49:33;;;;;;;5.15;2.03;;;17.10;99.90;;;;;;5098095;28;20051;-73
2022/07/27 05:51:59;;;;;;;8.05;2.25;;;17.20;99.90;;;;;;5086854;28;20091;-74
2022/07/27 05:54:25;;;;;;;4.80;2.53;;;17.20;99.90;;;;;;5097640;28;20040;-74
2022/07/27 05:56:51;;;;;;;4.22;2.22;;;17.30;99.90;;;;;;5098174;28;20027;-74
2022/07/27 05:59:17;;;;;;;4.13;2.30;;;17.30;99.90;;;;;;5099079;28;20027;-73
2022/07/27 06:01:43;;;;;;;6.25;2.20;;;17.30;99.90;;;;;;5097780;28;20108;-74
2022/07/27 06:04:08;;;;;;;3.58;2.20;;;17.30;99.90;;;;;;5093589;28;20470;-74
2022/07/27 06:09:18;;;;;;;6.03;2.17;;;17.40;99.90;;;;;;5092870;28;20040;-74
2022/07/27 06:11:44;;;;;;;6.03;2.85;;;17.50;99.90;;;;;;5096597;28;20396;-74
2022/07/27 06:14:10;;;;;;;4.80;2.05;;;17.60;99.90;;;;;;5092821;28;20016;-74
2022/07/27 06:16:36;;;;;;;4.28;2.00;;;17.70;99.90;;;;;;5085436;28;20467;-74
2022/07/27 06:19:02;;;;;;;3.00;2.03;;;17.90;99.90;;;;;;5085231;28;20077;-75
2022/07/27 06:21:28;;;;;;;6.25;3.10;;;17.90;99.90;;;;;;5085603;28;20031;-74
2022/07/27 06:23:54;;;;;;;5.05;2.80;;;18.10;99.90;;;;;;5080575;28;20092;-74
2022/07/27 06:26:20;;;;;;;4.38;1.63;;;18.10;99.90;;;;;;5092928;28;20423;-76
2022/07/27 06:28:46;;;;;;;5.97;2.20;;;18.20;99.90;;;;;;5090687;28;20031;-75
2022/07/27 06:31:12;;;;;;;3.05;1.90;;;18.30;99.90;;;;;;5089430;28;20047;-74
2022/07/27 06:33:38;;;;;;;8.30;2.38;;;18.30;99.90;;;;;;5082820;28;20610;-75
2022/07/27 06:36:07;;;;;;;8.80;2.40;;;18.30;99.90;;;;;;5094880;28;20490;-73
2022/07/27 06:38:33;;;;;;;4.95;2.08;;;18.40;99.90;;;;;;5096159;28;20035;-74
2022/07/27 06:40:59;;;;;;;4.95;2.05;;;18.40;99.90;;;;;;5084106;28;20021;-74
2022/07/27 06:43:29;;;;;;;8.05;2.10;;;18.40;99.90;;;;;;5085295;28;20047;-75
2022/07/27 06:45:59;;;;;;;15.63;2.10;;;18.40;99.90;;;;;;5097732;28;20031;-75
2022/07/27 06:48:25;;;;;;;4.85;2.22;;;18.60;99.90;;;;;;5095706;28;20063;-76
2022/07/27 06:50:52;;;;;;;5.20;2.30;;;18.70;99.90;;;;;;5091878;28;20498;-75
2022/07/27 06:53:18;;;;;;;9.95;2.45;;;18.80;99.90;;;;;;5092520;28;20016;-76
2022/07/27 06:55:44;;;;;;;6.70;1.90;;;18.90;99.90;;;;;;5093096;28;20047;-75
2022/07/27 06:58:11;;;;;;;3.67;2.03;;;19.00;99.90;;;;;;5096598;28;20400;-75
2022/07/27 07:00:38;;;;;;;4.20;2.65;;;19.00;99.90;;;;;;5088471;28;20024;-76
2022/07/27 07:03:05;;;;;;;4.97;2.08;;;19.10;99.90;;;;;;5096819;28;20024;-74
2022/07/27 07:05:33;;;;;;;5.78;2.00;;;19.10;99.90;;;;;;5093997;28;20036;-74
2022/07/27 07:07:59;;;;;;;3.35;2.10;;;19.00;99.90;;;;;;5094709;28;20468;-75
2022/07/27 07:10:26;;;;;;;4.10;1.92;;;19.00;99.90;;;;;;5080244;28;20021;-75
2022/07/27 07:12:56;;;;;;;6.78;1.73;;;19.00;99.90;;;;;;5079869;28;20043;-74
2022/07/27 07:15:25;;;;;;;8.23;2.20;;;19.00;99.90;;;;;;5094963;28;20019;-75
2022/07/27 07:17:52;;;;;;;5.60;2.35;;;19.10;99.90;;;;;;5096499;28;20020;-75
2022/07/27 07:20:20;;;;;;;4.13;1.90;;;19.20;99.90;;;;;;5095403;28;20389;-75
2022/07/27 07:22:46;;;;;;;6.18;1.88;;;19.30;99.90;;;;;;5094558;28;20036;-75
2022/07/27 07:25:12;;;;;;;8.15;2.22;;;19.40;99.90;;;;;;5092569;28;20043;-75
2022/07/27 07:27:38;;;;;;;16.20;2.20;;;19.50;99.90;;;;;;5096327;28;20487;-75
2022/07/27 07:30:04;;;;;;;9.93;2.50;;;19.60;99.90;;;;;;5092385;28;20016;-75
2022/07/27 07:32:30;;;;;;;9.73;2.17;;;19.60;99.90;;;;;;5090819;28;20700;-76
2022/07/27 07:34:56;;;;;;;4.28;2.22;;;19.70;99.90;;;;;;5090197;28;20020;-76
2022/07/27 07:37:22;;;;;;;8.88;1.83;;;19.90;99.90;;;;;;5088309;28;20024;-75
2022/07/27 07:39:48;;;;;;;4.95;2.38;;;20.00;99.90;;;;;;5082029;28;20052;-76
2022/07/27 07:42:14;;;;;;;9.02;1.90;;;20.10;99.90;;;;;;5090969;28;20023;-76
2022/07/27 07:44:40;;;;;;;4.45;2.13;;;20.20;99.90;;;;;;5090453;28;20092;-76
2022/07/27 07:47:06;;;;;;;5.35;1.80;;;20.20;99.90;;;;;;5078608;28;20029;-74
2022/07/27 07:49:32;;;;;;;5.20;2.05;;;20.20;99.90;;;;;;5085052;28;20032;-76
2022/07/27 07:51:58;;;;;;;5.93;2.53;;;20.30;99.90;;;;;;5079283;28;20036;-73
2022/07/27 07:54:24;;;;;;;3.55;1.83;;;20.30;99.90;;;;;;5095735;28;20037;-75
2022/07/27 07:56:50;;;;;;;3.80;2.05;;;20.40;99.90;;;;;;5095795;28;20036;-75
2022/07/27 07:59:16;;;;;;;7.55;2.00;;;20.50;99.90;;;;;;5087711;28;20024;-76
2022/07/27 08:01:41;;;;;;;6.63;1.80;;;20.60;99.90;;;;;;5096448;28;20040;-75
2022/07/27 08:04:07;;;;;;;4.20;1.55;;;20.70;99.90;;;;;;5089192;28;20023;-75
2022/07/27 08:06:33;;;;;;;3.85;1.98;;;20.70;99.90;;;;;;5086611;28;20767;-74
2022/07/27 08:08:59;;;;;;;4.20;1.42;;;20.70;99.90;;;;;;5094924;28;20216;-74
2022/07/27 08:11:25;;;;;;;5.60;1.60;;;20.80;99.90;;;;;;5097024;28;20028;-75
2022/07/27 08:13:50;;;;;;;8.18;1.50;;;20.90;99.90;;;;;;5090048;28;20027;-74
2022/07/27 08:16:16;;;;;;;9.70;2.50;;;21.10;99.90;;;;;;5092258;28;20494;-75
2022/07/27 08:18:42;;;;;;;10.05;2.13;;;21.10;99.90;;;;;;5091458;28;20035;-75
2022/07/27 08:21:09;;;;;;;15.18;3.03;;;21.20;99.90;;;;;;5095039;28;20024;-75
2022/07/27 08:23:35;;;;;;;7.40;2.13;;;21.30;99.90;;;;;;5093553;28;20027;-75
2022/07/27 08:26:01;;;;;;;5.00;1.88;;;21.30;99.90;;;;;;5093151;28;20059;-74
2022/07/27 08:28:27;;;;;;;5.13;2.30;;;21.30;99.90;;;;;;5093341;28;20029;-74
2022/07/27 08:30:53;;;;;;;6.10;1.95;;;21.30;99.90;;;;;;5096592;28;20020;-74
2022/07/27 08:33:18;;;;;;;4.70;1.83;;;21.30;99.90;;;;;;5097402;28;20020;-75
2022/07/27 08:35:45;;;;;;;6.82;2.10;;;21.20;99.90;;;;;;5091449;28;20024;-74
2022/07/27 08:38:11;;;;;;;4.95;2.42;;;21.40;99.90;;;;;;5097356;28;20032;-74
2022/07/27 08:40:38;;;;;;;7.80;2.15;;;21.40;99.90;;;;;;5096864;28;20036;-74
2022/07/27 08:43:05;;;;;;;5.88;1.83;;;21.50;99.90;;;;;;5079399;28;20024;-73
2022/07/27 08:45:32;;;;;;;3.85;1.70;;;21.60;99.90;;;;;;5098026;28;20078;-75
2022/07/27 08:47:58;;;;;;;6.18;1.80;;;21.70;99.90;;;;;;5096060;28;20021;-74
2022/07/27 08:50:29;;;;;;;4.13;1.90;;;21.70;99.90;;;;;;5082624;28;20082;-74
2022/07/27 08:52:59;;;;;;;;;;;21.80;99.90;;;;;;5089536;28;20036;-74
2022/07/27 08:55:27;;;;;;;6.95;1.98;;;21.90;99.90;;;;;;5085784;28;19909;-74
2022/07/27 08:57:53;;;;;;;6.85;1.67;;;22.10;99.90;;;;;;5098440;28;20024;-74
2022/07/27 09:00:19;;;;;;;3.97;1.75;;;22.20;99.90;;;;;;5097292;28;20024;-74
2022/07/27 09:02:45;;;;;;;5.43;1.98;;;22.10;99.90;;;;;;5097814;28;20039;-74
2022/07/27 09:05:13;;;;;;;5.60;1.73;;;22.10;99.90;;;;;;5100882;28;20020;-74
2022/07/27 09:07:39;;;;;;;5.47;1.80;;;22.20;99.90;;;;;;5097463;28;20480;-75
2022/07/27 09:10:05;;;;;;;7.72;2.17;;;22.30;99.90;;;;;;5098128;28;20291;-75
2022/07/27 09:12:32;;;;;;;27.00;3.20;;;22.40;99.70;;;;;;5094843;28;20028;-75
2022/07/27 09:15:08;;;;;;;5.40;2.03;;;22.40;99.40;;;;;;5095935;28;20028;-73
2022/07/27 09:17:35;;;;;;;4.93;1.92;;;22.70;98.80;;;;;;5095532;28;20077;-74
2022/07/27 09:20:23;;;;;;;5.65;2.05;;;23.00;99.00;;;;;;5096939;28;20484;-75
2022/07/27 09:22:54;;;;;;;4.85;1.95;;;22.90;98.40;;;;;;5090621;28;20074;-74
2022/07/27 09:25:24;;;;;;;;;;;23.10;98.90;;;;;;5086442;28;20016;-75
2022/07/27 09:27:55;;;;;;;3.43;1.63;;;23.30;98.90;;;;;;5075500;28;19935;-74
2022/07/27 09:30:21;;;;;;;2.85;1.58;;;23.40;97.10;;;;;;5088564;28;20308;-74
2022/07/27 09:32:56;;;;;;;5.85;1.85;;;23.40;95.20;;;;;;5096796;28;20024;-75
2022/07/27 09:35:28;;;;;;;4.47;1.45;;;23.40;95.60;;;;;;5088555;28;20017;-74
2022/07/27 09:37:56;;;;;;;4.63;1.63;;;23.40;95.70;;;;;;5081659;28;20029;-74
2022/07/27 09:40:23;;;;;;;5.80;1.20;;;23.20;94.70;;;;;;5088763;28;20029;-76
2022/07/27 09:43:11;;;;;;;4.95;1.77;;;23.30;95.60;;;;;;5081381;28;20060;-75
2022/07/27 09:45:38;;;;;;;5.80;2.20;;;23.30;93.70;;;;;;5095590;28;20028;-75
2022/07/27 09:48:07;;;;;;;3.78;1.52;;;23.30;95.00;;;;;;5080568;28;20020;-74
2022/07/27 09:50:34;;;;;;;5.45;1.30;;;23.40;94.10;;;;;;5084524;28;20025;-75
2022/07/27 09:53:15;;;;;;;4.18;1.60;;;23.50;94.50;;;;;;5079667;28;20131;-74
2022/07/27 09:55:42;;;;;;;5.60;1.42;;;23.70;93.40;;;;;;5081483;28;20021;-74
2022/07/27 09:58:08;;;;;;;3.20;1.80;;;23.80;93.40;;;;;;5078090;28;20036;-74
2022/07/27 10:00:34;;;;;;;5.43;1.77;;;23.80;92.40;;;;;;5078058;28;20012;-74
2022/07/27 10:03:00;;;;;;;7.07;2.25;;;23.60;92.80;;;;;;5083818;28;20031;-76
2022/07/27 10:05:26;;;;;;;6.35;1.70;;;23.60;93.00;;;;;;5084437;28;20020;-74
2022/07/27 10:07:53;;;;;;;4.22;1.30;;;23.70;93.00;;;;;;5077981;28;20039;-75
2022/07/27 10:10:20;;;;;;;4.97;1.58;;;23.90;90.10;;;;;;5082850;28;20012;-74
2022/07/27 10:12:47;;;;;;;3.00;1.50;;;24.20;85.20;;;;;;5080984;28;20115;-74
2022/07/27 10:15:13;;;;;;;4.60;1.70;;;24.50;85.60;;;;;;5091650;28;20894;-75
2022/07/27 10:17:43;;;;;;;3.47;1.50;;;24.60;85.40;;;;;;5088479;28;20086;-74
2022/07/27 10:20:10;;;;;;;6.45;1.77;;;24.90;87.10;;;;;;5076428;28;20013;-75
2022/07/27 10:22:59;;;;;;;3.63;1.30;;;24.90;83.40;;;;;;5084860;28;20038;-74
2022/07/27 10:25:27;;;;;;;7.32;1.35;;;24.70;82.70;;;;;;5087770;28;20510;-74
2022/07/27 10:28:11;;;;;;;2.80;1.30;;;24.50;85.60;;;;;;5104427;28;20067;-74
2022/07/27 10:30:37;;;;;;;6.35;1.70;;;24.50;86.60;;;;;;5078215;28;20035;-75
2022/07/27 10:33:51;;;;;;;4.90;1.42;;;24.80;87.20;;;;;;5081661;28;20032;-74
2022/07/27 10:36:23;;;;;;;10.10;1.77;;;25.00;84.90;;;;;;5064175;28;20561;-75
2022/07/27 10:38:51;;;;;;;4.18;1.52;;;25.10;85.20;;;;;;5053468;28;20189;-75
2022/07/27 10:41:22;;;;;;;4.63;1.42;;;25.10;82.30;;;;;;5072205;28;20032;-74
2022/07/27 10:43:50;;;;;;;;;;;25.00;82.20;;;;;;5079284;28;20028;-75
2022/07/27 10:46:20;;;;;;;5.43;1.98;;;24.80;81.80;;;;;;5078766;28;20038;-75
2022/07/27 10:48:46;;;;;;;4.25;2.03;;;24.70;82.30;;;;;;5084746;28;20031;-74
2022/07/27 10:51:14;;;;;;;4.25;1.80;;;24.60;82.00;;;;;;5078394;28;20044;-74
2022/07/27 10:53:42;;;;;;;3.53;1.80;;;24.60;83.50;;;;;;5076208;28;20025;-74
2022/07/27 10:56:09;;;;;;;4.63;1.73;;;24.60;82.60;;;;;;5076041;28;20717;-74
2022/07/27 10:58:35;;;;;;;2.58;1.40;;;24.70;83.00;;;;;;5077213;28;20032;-74
2022/07/27 11:01:03;;;;;;;3.17;1.58;;;25.00;84.20;;;;;;5075199;28;20037;-74
2022/07/27 11:03:33;;;;;;;4.35;1.13;;;25.30;81.40;;;;;;5073829;28;20567;-74
2022/07/27 11:06:09;;;;;;;5.18;1.40;;;25.40;82.80;;;;;;5074924;28;20128;-74
2022/07/27 11:08:46;;;;;;;4.72;1.50;;;25.50;78.50;;;;;;5074244;28;20062;-74
2022/07/27 11:11:21;;;;;;;6.93;1.45;;;25.50;81.10;;;;;;5076839;28;20032;-75
2022/07/27 11:13:50;;;;;;;4.32;1.55;;;25.70;80.70;;;;;;5077051;28;20055;-75
2022/07/27 11:16:17;;;;;;;3.95;1.13;;;25.60;77.20;;;;;;5077485;28;20021;-74
2022/07/27 11:18:51;;;;;;;2.90;1.42;;;25.50;76.60;;;;;;5075976;28;20075;-74
2022/07/27 11:21:26;;;;;;;4.93;1.20;;;25.50;77.60;;;;;;5075986;28;20021;-74
2022/07/27 11:23:55;;;;;;;4.90;1.60;;;25.40;76.40;;;;;;5074117;28;20036;-74
2022/07/27 11:26:22;;;;;;;4.32;1.75;;;25.40;76.40;;;;;;5075105;28;20073;-74
2022/07/27 11:28:49;;;;;;;5.47;1.35;;;25.50;77.00;;;;;;5075269;28;20044;-74
2022/07/27 11:31:16;;;;;;;3.40;1.52;;;25.50;73.90;;;;;;5088857;28;20036;-74
2022/07/27 11:33:50;;;;;;;2.55;1.27;;;25.70;77.50;;;;;;5080734;28;20107;-74
2022/07/27 11:36:15;;;;;;;5.13;1.40;;;25.90;75.50;;;;;;5103102;28;20602;-74
2022/07/27 11:38:47;;;;;;;3.63;1.60;;;26.00;75.60;;;;;;5075296;28;20051;-74
2022/07/27 11:41:31;;;;;;;2.47;1.35;;;25.70;75.00;;;;;;5074430;28;20029;-74
2022/07/27 11:44:14;;;;;;;3.03;1.40;;;25.80;75.60;;;;;;5104542;28;20028;-75
2022/07/27 11:46:43;;;;;;;4.63;1.30;;;25.90;75.50;;;;;;5078520;28;20035;-73
2022/07/27 11:49:15;;;;;;;5.28;1.67;;;26.00;74.60;;;;;;5072987;28;20040;-73
2022/07/27 11:51:43;;;;;;;3.67;1.27;;;25.70;75.90;;;;;;5079297;28;20084;-74
2022/07/27 11:54:26;;;;;;;4.85;1.45;;;25.80;77.20;;;;;;5072430;28;20493;-74
2022/07/27 11:56:59;;;;;;;2.13;1.15;;;25.80;75.40;;;;;;5085813;28;20016;-74
2022/07/27 11:59:33;;;;;;;3.45;1.08;;;25.90;78.00;;;;;;5083994;28;20077;-73
2022/07/27 12:02:16;;;;;;;3.15;1.20;;;26.20;75.10;;;;;;5073580;28;20103;-74
2022/07/27 12:04:44;;;;;;;3.38;1.40;;;26.20;75.10;;;;;;5072886;28;20050;-74
2022/07/27 12:07:18;;;;;;;4.10;1.58;;;26.10;73.30;;;;;;5079263;28;20032;-75
2022/07/27 12:09:52;;;;;;;3.20;1.38;;;26.20;74.40;;;;;;5074404;28;20090;-74
2022/07/27 12:12:20;;;;;;;3.83;1.13;;;26.60;74.90;;;;;;5073961;28;20021;-74
2022/07/27 12:15:07;;;;;;;2.63;1.67;;;26.50;71.70;;;;;;5074580;28;20032;-74
2022/07/27 12:17:38;;;;;;;4.65;1.10;;;26.50;74.30;;;;;;5073089;28;20039;-73
2022/07/27 12:20:07;;;;;;;3.42;1.60;;;26.70;70.90;;;;;;5073262;28;20036;-73
2022/07/27 12:22:40;;;;;;;8.55;1.90;;;26.60;72.20;;;;;;5074367;28;20112;-73
2022/07/27 12:25:28;;;;;;;1.58;0.90;;;26.70;69.70;;;;;;5075515;28;20085;-74
2022/07/27 12:28:06;;;;;;;3.60;1.40;;;26.50;68.40;;;;;;5076048;28;20059;-74
2022/07/27 12:30:38;;;;;;;3.40;1.60;;;26.60;69.80;;;;;;5076384;28;20082;-74
2022/07/27 12:33:06;;;;;;;3.78;1.25;;;26.70;68.80;;;;;;5076338;28;20036;-74
2022/07/27 12:35:44;;;;;;;4.18;1.25;;;26.70;66.20;;;;;;5075612;28;20047;-74
2022/07/27 12:38:09;;;;;;;7.45;1.80;;;26.70;69.90;;;;;;5075584;28;20039;-74
2022/07/27 12:40:47;;;;;;;4.65;1.20;;;26.90;69.50;;;;;;5074321;28;20037;-74
2022/07/27 12:43:16;;;;;;;5.50;1.30;;;27.00;69.90;;;;;;5077893;28;20031;-74
2022/07/27 12:45:42;;;;;;;4.20;1.48;;;27.20;70.10;;;;;;5077639;28;20199;-74
2022/07/27 12:48:15;;;;;;;3.65;1.45;;;27.40;68.10;;;;;;5076607;28;20025;-74
2022/07/27 12:50:43;;;;;;;2.38;1.30;;;27.20;67.90;;;;;;5075971;28;20021;-73
2022/07/27 12:53:12;;;;;;;4.20;1.27;;;27.20;68.00;;;;;;5073921;28;20409;-73